Olmsted Falls, Ohio
Current Conditions -  °F | °C
As of 8:51 PM on Friday 19 Dec 2014 (Local Time) from KCLE Reporting Station
Overcast Overcast  
Wind Chill: 23°   Ceiling: 2300
Heat Index: 29°   Visibility: 10mi
Dew Point: 21°   Wind: 6mph
Humidity: 72%   Direction: 290°WNW
Pressure: 30.33"   Gusts: NA
Location:  41.37°N, 81.91°W
Report Text: KCLE 200151Z 29005KT 10SM OVC023 M02/M06 A3033 RMK AO2 SLP279 T10171061
Loading
Personal Weather Stations






























Interactive Weather Map New forecast layout! Learn more

10-Day Weather Forecast

Advertisements
Track Severe Weather on mobile